AIC6FR VOHS-VABB
Flight info
| Callsign | AIC6FR |
|---|---|
| Flight time | N/A |
| Altitude | 40000 |
| Route | TAMIV5 APUSU W18 OPAKA EMRAK2A |
| Aircraft | A359/H-SDE2E3GHIJ3J4J5LM1ORWXY/LB1D1 |
Departure
| Time | 2026-04-22 05:16 |
|---|---|
| Airport | Rajiv Gandhi International Airport (VOHS) |
Arrival
| Time | N/A |
|---|---|
| Airport | Chhatrapati Shivaji Maharaj International Airport (VABB) |
| Time | Latitude | Longitude | Altitude | Speed | Heading |
|---|---|---|---|---|---|
| 2026-04-22 04:40 | 17.23422 | 78.42811 | 1986 ft | 0 kts | 359° |
| 2026-04-22 04:54 | 17.23405 | 78.42811 | 1988 ft | 4 kts | 359° |
| 2026-04-22 04:54 | 17.23382 | 78.42811 | 1987 ft | 2 kts | 359° |
| 2026-04-22 04:54 | 17.23356 | 78.42810 | 1985 ft | 4 kts | 10° |
| 2026-04-22 04:54 | 17.23333 | 78.42802 | 1984 ft | 4 kts | 54° |
| 2026-04-22 04:55 | 17.23328 | 78.42779 | 1984 ft | 4 kts | 88° |
| 2026-04-22 04:55 | 17.23327 | 78.42751 | 1984 ft | 4 kts | 88° |
| 2026-04-22 04:55 | 17.23327 | 78.42740 | 1984 ft | 0 kts | 88° |
| 2026-04-22 05:03 | 17.23327 | 78.42744 | 1986 ft | 5 kts | 87° |
| 2026-04-22 05:03 | 17.23328 | 78.42814 | 1991 ft | 11 kts | 89° |
| 2026-04-22 05:04 | 17.23329 | 78.42901 | 1990 ft | 13 kts | 89° |
| 2026-04-22 05:04 | 17.23331 | 78.43001 | 1989 ft | 15 kts | 89° |
| 2026-04-22 05:04 | 17.23332 | 78.43041 | 1989 ft | 0 kts | 89° |
| 2026-04-22 05:05 | 17.23332 | 78.43045 | 1988 ft | 0 kts | 89° |
| 2026-04-22 05:05 | 17.23331 | 78.43108 | 1987 ft | 0 kts | 97° |
| 2026-04-22 05:05 | 17.23320 | 78.43133 | 1990 ft | 12 kts | 127° |
| 2026-04-22 05:05 | 17.23237 | 78.43161 | 1988 ft | 16 kts | 179° |
| 2026-04-22 05:06 | 17.23122 | 78.43170 | 1989 ft | 17 kts | 157° |
| 2026-04-22 05:06 | 17.23087 | 78.43290 | 1985 ft | 24 kts | 89° |
| 2026-04-22 05:06 | 17.23088 | 78.43419 | 1985 ft | 27 kts | 89° |
| 2026-04-22 05:06 | 17.23092 | 78.43683 | 1986 ft | 28 kts | 89° |
| 2026-04-22 05:07 | 17.23095 | 78.43892 | 1987 ft | 28 kts | 89° |
| 2026-04-22 05:07 | 17.23098 | 78.44070 | 1991 ft | 23 kts | 89° |
| 2026-04-22 05:07 | 17.23101 | 78.44241 | 1987 ft | 15 kts | 89° |
| 2026-04-22 05:07 | 17.23102 | 78.44306 | 1989 ft | 10 kts | 89° |
| 2026-04-22 05:08 | 17.23103 | 78.44383 | 1987 ft | 12 kts | 89° |
| 2026-04-22 05:08 | 17.23104 | 78.44477 | 1987 ft | 14 kts | 89° |
| 2026-04-22 05:08 | 17.23106 | 78.44583 | 1987 ft | 16 kts | 89° |
| 2026-04-22 05:08 | 17.23107 | 78.44706 | 1986 ft | 18 kts | 89° |
| 2026-04-22 05:09 | 17.23110 | 78.44845 | 1988 ft | 20 kts | 89° |
| 2026-04-22 05:09 | 17.23112 | 78.44996 | 1989 ft | 13 kts | 89° |
| 2026-04-22 05:09 | 17.23112 | 78.45002 | 1989 ft | 0 kts | 89° |
| 2026-04-22 05:09 | 17.23112 | 78.45003 | 1989 ft | 3 kts | 89° |
| 2026-04-22 05:10 | 17.23113 | 78.45060 | 1989 ft | 10 kts | 89° |
| 2026-04-22 05:10 | 17.23114 | 78.45152 | 1989 ft | 14 kts | 89° |
| 2026-04-22 05:10 | 17.23115 | 78.45242 | 1989 ft | 5 kts | 89° |
| 2026-04-22 05:10 | 17.23115 | 78.45243 | 1989 ft | 0 kts | 89° |
| 2026-04-22 05:12 | 17.23115 | 78.45261 | 1989 ft | 9 kts | 94° |
| 2026-04-22 05:12 | 17.23073 | 78.45311 | 1990 ft | 10 kts | 156° |
| 2026-04-22 05:12 | 17.23039 | 78.45317 | 1990 ft | 0 kts | 178° |
| 2026-04-22 05:13 | 17.23025 | 78.45317 | 1988 ft | 8 kts | 184° |
| 2026-04-22 05:13 | 17.22960 | 78.45288 | 1989 ft | 11 kts | 214° |
| 2026-04-22 05:14 | 17.22912 | 78.45225 | 1992 ft | 11 kts | 252° |
| 2026-04-22 05:14 | 17.22909 | 78.45180 | 1987 ft | 0 kts | 269° |
| 2026-04-22 05:15 | 17.22908 | 78.45166 | 1987 ft | 15 kts | 269° |
| 2026-04-22 05:15 | 17.22904 | 78.44793 | 1987 ft | 85 kts | 269° |
| 2026-04-22 05:15 | 17.22893 | 78.43955 | 1986 ft | 143 kts | 269° |
| 2026-04-22 05:16 | 17.22865 | 78.42787 | 2370 ft | 160 kts | 271° |
| 2026-04-22 05:16 | 17.22830 | 78.41666 | 3054 ft | 165 kts | 271° |
| 2026-04-22 05:16 | 17.22828 | 78.40383 | 3269 ft | 185 kts | 271° |
| 2026-04-22 05:16 | 17.22826 | 78.38970 | 3437 ft | 203 kts | 270° |
| 2026-04-22 05:17 | 17.22811 | 78.37453 | 3761 ft | 211 kts | 271° |
| 2026-04-22 05:17 | 17.22789 | 78.35907 | 4195 ft | 216 kts | 271° |
| 2026-04-22 05:17 | 17.22766 | 78.34266 | 4450 ft | 233 kts | 270° |
| 2026-04-22 05:17 | 17.22829 | 78.32555 | 4969 ft | 235 kts | 279° |
| 2026-04-22 05:18 | 17.23682 | 78.29265 | 6200 ft | 236 kts | 288° |
| 2026-04-22 05:18 | 17.24176 | 78.27602 | 6703 ft | 244 kts | 288° |
| 2026-04-22 05:18 | 17.24694 | 78.25849 | 6922 ft | 262 kts | 288° |
| 2026-04-22 05:19 | 17.25247 | 78.23967 | 7139 ft | 278 kts | 287° |
| 2026-04-22 05:19 | 17.25821 | 78.22006 | 7549 ft | 286 kts | 288° |
| 2026-04-22 05:19 | 17.26407 | 78.19993 | 8001 ft | 292 kts | 288° |
| 2026-04-22 05:19 | 17.27003 | 78.17950 | 8474 ft | 296 kts | 288° |
| 2026-04-22 05:20 | 17.27606 | 78.15883 | 9020 ft | 299 kts | 287° |
| 2026-04-22 05:20 | 17.28215 | 78.13789 | 9529 ft | 303 kts | 287° |
| 2026-04-22 05:20 | 17.28831 | 78.11669 | 10028 ft | 307 kts | 287° |
| 2026-04-22 05:20 | 17.29463 | 78.09494 | 10327 ft | 319 kts | 288° |
| 2026-04-22 05:21 | 17.30124 | 78.07222 | 10515 ft | 333 kts | 287° |
| 2026-04-22 05:21 | 17.30810 | 78.04857 | 10726 ft | 346 kts | 288° |
| 2026-04-22 05:21 | 17.31522 | 78.02408 | 10952 ft | 357 kts | 288° |
| 2026-04-22 05:21 | 17.32249 | 77.99901 | 11327 ft | 362 kts | 288° |
| 2026-04-22 05:22 | 17.32982 | 77.97372 | 11766 ft | 364 kts | 288° |
| 2026-04-22 05:22 | 17.33719 | 77.94828 | 12223 ft | 366 kts | 287° |
| 2026-04-22 05:22 | 17.34458 | 77.92276 | 12730 ft | 367 kts | 287° |
| 2026-04-22 05:22 | 17.35200 | 77.89711 | 13165 ft | 369 kts | 287° |
| 2026-04-22 05:23 | 17.35864 | 77.87415 | 13552 ft | 372 kts | 287° |
| 2026-04-22 05:23 | 17.36252 | 77.86074 | 13798 ft | 373 kts | 287° |
| 2026-04-22 05:23 | 17.37004 | 77.83473 | 14182 ft | 374 kts | 288° |
| 2026-04-22 05:23 | 17.37163 | 77.82920 | 14260 ft | 375 kts | 288° |
| 2026-04-22 05:24 | 17.37919 | 77.80305 | 14687 ft | 375 kts | 288° |
| 2026-04-22 05:24 | 17.38675 | 77.77688 | 15105 ft | 377 kts | 287° |
| 2026-04-22 05:24 | 17.39434 | 77.75055 | 15512 ft | 379 kts | 288° |
| 2026-04-22 05:24 | 17.40197 | 77.72413 | 15928 ft | 379 kts | 287° |
| 2026-04-22 05:25 | 17.40960 | 77.69764 | 16351 ft | 381 kts | 287° |
| 2026-04-22 05:25 | 17.41726 | 77.67107 | 16770 ft | 382 kts | 287° |
| 2026-04-22 05:25 | 17.42499 | 77.64438 | 17178 ft | 384 kts | 288° |
| 2026-04-22 05:25 | 17.43434 | 77.61824 | 17587 ft | 384 kts | 295° |
| 2026-04-22 05:26 | 17.44771 | 77.59410 | 18019 ft | 384 kts | 306° |
| 2026-04-22 05:26 | 17.46506 | 77.57271 | 18341 ft | 388 kts | 314° |
| 2026-04-22 05:26 | 17.48448 | 77.55286 | 18619 ft | 391 kts | 316° |
| 2026-04-22 05:26 | 17.50475 | 77.53370 | 18952 ft | 393 kts | 317° |
| 2026-04-22 05:27 | 17.52540 | 77.51479 | 19274 ft | 396 kts | 317° |
| 2026-04-22 05:27 | 17.54621 | 77.49582 | 19590 ft | 398 kts | 317° |
| 2026-04-22 05:27 | 17.56707 | 77.47668 | 19897 ft | 400 kts | 317° |
| 2026-04-22 05:27 | 17.58801 | 77.45730 | 20202 ft | 403 kts | 317° |
| 2026-04-22 05:28 | 17.60900 | 77.43772 | 20515 ft | 405 kts | 316° |
| 2026-04-22 05:28 | 17.63002 | 77.41799 | 20831 ft | 407 kts | 316° |
| 2026-04-22 05:28 | 17.65109 | 77.39814 | 21141 ft | 408 kts | 316° |
| 2026-04-22 05:28 | 17.67227 | 77.37819 | 21457 ft | 410 kts | 316° |
| 2026-04-22 05:29 | 17.69354 | 77.35812 | 21774 ft | 412 kts | 316° |
| 2026-04-22 05:29 | 17.71487 | 77.33799 | 22069 ft | 414 kts | 316° |
| 2026-04-22 05:29 | 17.73633 | 77.31775 | 22347 ft | 416 kts | 316° |
| 2026-04-22 05:29 | 17.75791 | 77.29741 | 22658 ft | 418 kts | 316° |
| 2026-04-22 05:30 | 17.77959 | 77.27696 | 22948 ft | 420 kts | 315° |
| 2026-04-22 05:30 | 17.80138 | 77.25641 | 23234 ft | 422 kts | 315° |
| 2026-04-22 05:30 | 17.82326 | 77.23575 | 23507 ft | 424 kts | 315° |
| 2026-04-22 05:30 | 17.84524 | 77.21500 | 23733 ft | 427 kts | 315° |
| 2026-04-22 05:31 | 17.86737 | 77.19412 | 23968 ft | 428 kts | 315° |
| 2026-04-22 05:31 | 17.88830 | 77.17435 | 24207 ft | 429 kts | 315° |
| 2026-04-22 05:31 | 17.91053 | 77.15335 | 24447 ft | 431 kts | 315° |
| 2026-04-22 05:31 | 17.93283 | 77.13226 | 24686 ft | 432 kts | 315° |
| 2026-04-22 05:32 | 17.95519 | 77.11112 | 24921 ft | 433 kts | 315° |
| 2026-04-22 05:32 | 17.97760 | 77.08992 | 25162 ft | 435 kts | 314° |
| 2026-04-22 05:32 | 18.00010 | 77.06862 | 25407 ft | 436 kts | 314° |
| 2026-04-22 05:32 | 18.02265 | 77.04726 | 25624 ft | 438 kts | 315° |
| 2026-04-22 05:33 | 18.04534 | 77.02576 | 25870 ft | 439 kts | 315° |
| 2026-04-22 05:33 | 18.06807 | 77.00423 | 26118 ft | 441 kts | 314° |
| 2026-04-22 05:33 | 18.09090 | 76.98261 | 26366 ft | 442 kts | 314° |
| 2026-04-22 05:33 | 18.11375 | 76.96095 | 26614 ft | 444 kts | 314° |
| 2026-04-22 05:34 | 18.13671 | 76.93918 | 26871 ft | 445 kts | 314° |
| 2026-04-22 05:34 | 18.15973 | 76.91733 | 27136 ft | 446 kts | 314° |
| 2026-04-22 05:34 | 18.18283 | 76.89541 | 27388 ft | 448 kts | 314° |
| 2026-04-22 05:34 | 18.20597 | 76.87343 | 27643 ft | 449 kts | 314° |
| 2026-04-22 05:35 | 18.22924 | 76.85133 | 27897 ft | 451 kts | 314° |
| 2026-04-22 05:35 | 18.25253 | 76.82920 | 28299 ft | 449 kts | 314° |
| 2026-04-22 05:35 | 18.27546 | 76.80746 | 29076 ft | 439 kts | 313° |
| 2026-04-22 05:35 | 18.29784 | 76.78626 | 29908 ft | 428 kts | 313° |
| 2026-04-22 05:36 | 18.31978 | 76.76545 | 30467 ft | 423 kts | 312° |
| 2026-04-22 05:36 | 18.34162 | 76.74467 | 30811 ft | 424 kts | 311° |
| 2026-04-22 05:36 | 18.36347 | 76.72381 | 31154 ft | 424 kts | 311° |
| 2026-04-22 05:36 | 18.38504 | 76.70321 | 31501 ft | 425 kts | 310° |
| 2026-04-22 05:37 | 18.40725 | 76.68201 | 31855 ft | 425 kts | 310° |
| 2026-04-22 05:37 | 18.42916 | 76.66111 | 32195 ft | 426 kts | 310° |
| 2026-04-22 05:37 | 18.45113 | 76.64016 | 32537 ft | 426 kts | 310° |
| 2026-04-22 05:37 | 18.47284 | 76.61946 | 32873 ft | 426 kts | 309° |
| 2026-04-22 05:38 | 18.49482 | 76.59849 | 33205 ft | 427 kts | 309° |
| 2026-04-22 05:38 | 18.51707 | 76.57725 | 33532 ft | 427 kts | 309° |
| 2026-04-22 05:38 | 18.53886 | 76.55646 | 33867 ft | 427 kts | 308° |
| 2026-04-22 05:38 | 18.56087 | 76.53544 | 34149 ft | 427 kts | 308° |
| 2026-04-22 05:39 | 18.58289 | 76.51440 | 34445 ft | 427 kts | 308° |
| 2026-04-22 05:39 | 18.60490 | 76.49338 | 34741 ft | 427 kts | 308° |
| 2026-04-22 05:39 | 18.62687 | 76.47238 | 35045 ft | 426 kts | 308° |
| 2026-04-22 05:39 | 18.64878 | 76.45144 | 35402 ft | 424 kts | 308° |
| 2026-04-22 05:40 | 18.67058 | 76.43062 | 35722 ft | 423 kts | 307° |
| 2026-04-22 05:40 | 18.69234 | 76.40978 | 35978 ft | 423 kts | 307° |
| 2026-04-22 05:40 | 18.71413 | 76.38889 | 36228 ft | 423 kts | 307° |
| 2026-04-22 05:40 | 18.73593 | 76.36799 | 36481 ft | 423 kts | 307° |
| 2026-04-22 05:41 | 18.75771 | 76.34711 | 36716 ft | 424 kts | 307° |
| 2026-04-22 05:41 | 18.77956 | 76.32616 | 36941 ft | 424 kts | 307° |
| 2026-04-22 05:41 | 18.80136 | 76.30526 | 37182 ft | 423 kts | 307° |
| 2026-04-22 05:41 | 18.82311 | 76.28440 | 37449 ft | 423 kts | 307° |
| 2026-04-22 05:42 | 18.84490 | 76.26351 | 37694 ft | 423 kts | 307° |
| 2026-04-22 05:42 | 18.86665 | 76.24263 | 37907 ft | 423 kts | 307° |
| 2026-04-22 05:42 | 18.88842 | 76.22172 | 38124 ft | 423 kts | 307° |
| 2026-04-22 05:42 | 18.91022 | 76.20077 | 38346 ft | 423 kts | 306° |
| 2026-04-22 05:43 | 18.93198 | 76.17986 | 38570 ft | 423 kts | 306° |
| 2026-04-22 05:43 | 18.95370 | 76.15898 | 38764 ft | 422 kts | 306° |
| 2026-04-22 05:43 | 18.97538 | 76.13815 | 38985 ft | 421 kts | 307° |
| 2026-04-22 05:43 | 18.99701 | 76.11736 | 39168 ft | 420 kts | 307° |
| 2026-04-22 05:44 | 19.01859 | 76.09660 | 39338 ft | 419 kts | 307° |
| 2026-04-22 05:44 | 19.04014 | 76.07586 | 39492 ft | 419 kts | 307° |
| 2026-04-22 05:44 | 19.06162 | 76.05516 | 39650 ft | 418 kts | 307° |
| 2026-04-22 05:44 | 19.08314 | 76.03443 | 39789 ft | 417 kts | 307° |
| 2026-04-22 05:45 | 19.10461 | 76.01373 | 39890 ft | 419 kts | 307° |
| 2026-04-22 05:45 | 19.12615 | 75.99292 | 39941 ft | 421 kts | 307° |
| 2026-04-22 05:45 | 19.16967 | 75.95083 | 39959 ft | 428 kts | 307° |
| 2026-04-22 05:46 | 19.21404 | 75.90793 | 39965 ft | 436 kts | 307° |
| 2026-04-22 05:46 | 19.25925 | 75.86422 | 39961 ft | 445 kts | 308° |
| 2026-04-22 05:47 | 19.30433 | 75.81873 | 39958 ft | 446 kts | 301° |
| 2026-04-22 05:47 | 19.33671 | 75.76452 | 39968 ft | 430 kts | 282° |
| 2026-04-22 05:48 | 19.35434 | 75.70433 | 39963 ft | 429 kts | 275° |
| 2026-04-22 05:48 | 19.36757 | 75.64217 | 39962 ft | 437 kts | 274° |
| 2026-04-22 05:49 | 19.38075 | 75.57866 | 39962 ft | 447 kts | 274° |
| 2026-04-22 05:49 | 19.38976 | 75.51374 | 39962 ft | 443 kts | 264° |
| 2026-04-22 05:50 | 19.38666 | 75.44948 | 39326 ft | 434 kts | 258° |
| 2026-04-22 05:50 | 19.38410 | 75.41753 | 38633 ft | 436 kts | 258° |
| 2026-04-22 05:50 | 19.38148 | 75.38563 | 37991 ft | 434 kts | 258° |
| 2026-04-22 05:51 | 19.37890 | 75.35396 | 37461 ft | 430 kts | 258° |
| 2026-04-22 05:51 | 19.37633 | 75.32251 | 36944 ft | 426 kts | 258° |
| 2026-04-22 05:51 | 19.37377 | 75.29138 | 36431 ft | 423 kts | 258° |
| 2026-04-22 05:51 | 19.37123 | 75.26051 | 35912 ft | 420 kts | 259° |
| 2026-04-22 05:52 | 19.36868 | 75.22971 | 35383 ft | 419 kts | 259° |
| 2026-04-22 05:52 | 19.36613 | 75.19899 | 34836 ft | 421 kts | 259° |
| 2026-04-22 05:52 | 19.36354 | 75.16801 | 34226 ft | 424 kts | 260° |
| 2026-04-22 05:52 | 19.36094 | 75.13675 | 33614 ft | 426 kts | 260° |
| 2026-04-22 05:53 | 19.35835 | 75.10546 | 33157 ft | 427 kts | 261° |
| 2026-04-22 05:53 | 19.35574 | 75.07413 | 32694 ft | 428 kts | 261° |
| 2026-04-22 05:53 | 19.35313 | 75.04272 | 32241 ft | 428 kts | 261° |
| 2026-04-22 05:53 | 19.35050 | 75.01128 | 31781 ft | 430 kts | 262° |
| 2026-04-22 05:54 | 19.34785 | 74.97964 | 31321 ft | 431 kts | 262° |
| 2026-04-22 05:54 | 19.34519 | 74.94799 | 30861 ft | 432 kts | 262° |
| 2026-04-22 05:54 | 19.34253 | 74.91632 | 30407 ft | 432 kts | 262° |
| 2026-04-22 05:54 | 19.33986 | 74.88467 | 29912 ft | 432 kts | 262° |
| 2026-04-22 05:55 | 19.33719 | 74.85301 | 29410 ft | 431 kts | 263° |
| 2026-04-22 05:55 | 19.33453 | 74.82143 | 28955 ft | 429 kts | 263° |
| 2026-04-22 05:55 | 19.33187 | 74.79008 | 28491 ft | 426 kts | 263° |
| 2026-04-22 05:55 | 19.32923 | 74.75890 | 28039 ft | 424 kts | 263° |
| 2026-04-22 05:56 | 19.32659 | 74.72794 | 27595 ft | 421 kts | 263° |
| 2026-04-22 05:56 | 19.32397 | 74.69716 | 27137 ft | 419 kts | 263° |
| 2026-04-22 05:56 | 19.32135 | 74.66658 | 26688 ft | 416 kts | 263° |
| 2026-04-22 05:56 | 19.31875 | 74.63621 | 26242 ft | 413 kts | 263° |
| 2026-04-22 05:57 | 19.31616 | 74.60601 | 25811 ft | 410 kts | 263° |
| 2026-04-22 05:57 | 19.31444 | 74.58613 | 25505 ft | 409 kts | 263° |
| 2026-04-22 05:57 | 19.31187 | 74.55619 | 25057 ft | 407 kts | 263° |
| 2026-04-22 05:57 | 19.30931 | 74.52651 | 24611 ft | 404 kts | 263° |
| 2026-04-22 05:58 | 19.30675 | 74.49698 | 24158 ft | 402 kts | 264° |
| 2026-04-22 05:58 | 19.30421 | 74.46764 | 23703 ft | 399 kts | 263° |
| 2026-04-22 05:58 | 19.30167 | 74.43844 | 23223 ft | 397 kts | 263° |
| 2026-04-22 05:58 | 19.29915 | 74.40943 | 22747 ft | 395 kts | 264° |
| 2026-04-22 05:59 | 19.29665 | 74.38059 | 22295 ft | 391 kts | 264° |
| 2026-04-22 05:59 | 19.29415 | 74.35207 | 21844 ft | 388 kts | 264° |
| 2026-04-22 05:59 | 19.29167 | 74.32368 | 21394 ft | 387 kts | 264° |
| 2026-04-22 05:59 | 19.28920 | 74.29542 | 20936 ft | 384 kts | 264° |
| 2026-04-22 06:00 | 19.28673 | 74.26734 | 20493 ft | 382 kts | 264° |
| 2026-04-22 06:00 | 19.28429 | 74.23940 | 20093 ft | 384 kts | 264° |
| 2026-04-22 06:00 | 19.28181 | 74.21128 | 19595 ft | 383 kts | 264° |
| 2026-04-22 06:00 | 19.27933 | 74.18328 | 19121 ft | 380 kts | 264° |
| 2026-04-22 06:01 | 19.27689 | 74.15558 | 18650 ft | 377 kts | 264° |
| 2026-04-22 06:01 | 19.27445 | 74.12813 | 18188 ft | 373 kts | 264° |
| 2026-04-22 06:01 | 19.27204 | 74.10091 | 17687 ft | 369 kts | 264° |
| 2026-04-22 06:01 | 19.26967 | 74.07408 | 17246 ft | 364 kts | 264° |
| 2026-04-22 06:02 | 19.26732 | 74.04766 | 16795 ft | 359 kts | 264° |
| 2026-04-22 06:02 | 19.26498 | 74.02149 | 16359 ft | 355 kts | 264° |
| 2026-04-22 06:02 | 19.26268 | 73.99560 | 15918 ft | 351 kts | 264° |
| 2026-04-22 06:02 | 19.26039 | 73.96996 | 15489 ft | 349 kts | 263° |
| 2026-04-22 06:03 | 19.25811 | 73.94452 | 15107 ft | 350 kts | 264° |
| 2026-04-22 06:03 | 19.25575 | 73.91831 | 14945 ft | 364 kts | 264° |
| 2026-04-22 06:03 | 19.25307 | 73.89150 | 14934 ft | 368 kts | 262° |
| 2026-04-22 06:03 | 19.24920 | 73.86465 | 14935 ft | 368 kts | 260° |
| 2026-04-22 06:04 | 19.24509 | 73.83795 | 14940 ft | 368 kts | 260° |
| 2026-04-22 06:04 | 19.24099 | 73.81126 | 14940 ft | 367 kts | 260° |
| 2026-04-22 06:04 | 19.23692 | 73.78479 | 14664 ft | 362 kts | 259° |
| 2026-04-22 06:04 | 19.23287 | 73.75852 | 14069 ft | 362 kts | 260° |
| 2026-04-22 06:05 | 19.22883 | 73.73235 | 13613 ft | 352 kts | 260° |
| 2026-04-22 06:05 | 19.22513 | 73.70759 | 13251 ft | 330 kts | 260° |
| 2026-04-22 06:05 | 19.22176 | 73.68435 | 12876 ft | 312 kts | 260° |
| 2026-04-22 06:05 | 19.21851 | 73.66178 | 12470 ft | 309 kts | 260° |
| 2026-04-22 06:06 | 19.21524 | 73.63945 | 12092 ft | 305 kts | 260° |
| 2026-04-22 06:06 | 19.21158 | 73.61792 | 11704 ft | 301 kts | 255° |
| 2026-04-22 06:06 | 19.20634 | 73.59652 | 11247 ft | 301 kts | 255° |
| 2026-04-22 06:06 | 19.20134 | 73.57496 | 10835 ft | 300 kts | 255° |
| 2026-04-22 06:07 | 19.19650 | 73.55387 | 10665 ft | 290 kts | 255° |
| 2026-04-22 06:07 | 19.19190 | 73.53346 | 10482 ft | 281 kts | 255° |
| 2026-04-22 06:07 | 19.18742 | 73.51345 | 10167 ft | 278 kts | 255° |
| 2026-04-22 06:07 | 19.18288 | 73.49366 | 9952 ft | 277 kts | 255° |
| 2026-04-22 06:08 | 19.17825 | 73.47337 | 9908 ft | 290 kts | 255° |
| 2026-04-22 06:08 | 19.17337 | 73.45248 | 9907 ft | 295 kts | 255° |
| 2026-04-22 06:08 | 19.16848 | 73.43137 | 9909 ft | 296 kts | 255° |
| 2026-04-22 06:08 | 19.16362 | 73.41027 | 9908 ft | 296 kts | 255° |
| 2026-04-22 06:09 | 19.15883 | 73.38923 | 9742 ft | 292 kts | 255° |
| 2026-04-22 06:09 | 19.15422 | 73.36882 | 9319 ft | 279 kts | 255° |
| 2026-04-22 06:09 | 19.14976 | 73.34944 | 9048 ft | 263 kts | 255° |
| 2026-04-22 06:09 | 19.14556 | 73.33113 | 8747 ft | 251 kts | 255° |
| 2026-04-22 06:10 | 19.14083 | 73.31347 | 8230 ft | 249 kts | 249° |
| 2026-04-22 06:10 | 19.13441 | 73.29652 | 7651 ft | 250 kts | 246° |
| 2026-04-22 06:10 | 19.12765 | 73.27956 | 7130 ft | 249 kts | 246° |
| 2026-04-22 06:10 | 19.12095 | 73.26282 | 6704 ft | 246 kts | 245° |
| 2026-04-22 06:11 | 19.11424 | 73.24619 | 6142 ft | 247 kts | 246° |
| 2026-04-22 06:11 | 19.10755 | 73.22947 | 5635 ft | 246 kts | 248° |
| 2026-04-22 06:11 | 19.10178 | 73.21278 | 5155 ft | 244 kts | 253° |
| 2026-04-22 06:11 | 19.09724 | 73.19558 | 4664 ft | 243 kts | 259° |
| 2026-04-22 06:12 | 19.09448 | 73.17784 | 4203 ft | 239 kts | 266° |
| 2026-04-22 06:12 | 19.09346 | 73.16073 | 3941 ft | 225 kts | 270° |
| 2026-04-22 06:12 | 19.09313 | 73.14472 | 3879 ft | 210 kts | 271° |
| 2026-04-22 06:12 | 19.09294 | 73.12980 | 3666 ft | 203 kts | 272° |
| 2026-04-22 06:13 | 19.09269 | 73.11486 | 3542 ft | 200 kts | 272° |
| 2026-04-22 06:13 | 19.09238 | 73.10040 | 3527 ft | 200 kts | 272° |
| 2026-04-22 06:13 | 19.09205 | 73.08562 | 3536 ft | 201 kts | 272° |
| 2026-04-22 06:13 | 19.09173 | 73.07076 | 3450 ft | 196 kts | 272° |
| 2026-04-22 06:14 | 19.09148 | 73.05693 | 3246 ft | 185 kts | 273° |
| 2026-04-22 06:14 | 19.09131 | 73.04355 | 3007 ft | 177 kts | 275° |
| 2026-04-22 06:14 | 19.09115 | 73.03062 | 2767 ft | 176 kts | 274° |
| 2026-04-22 06:14 | 19.09097 | 73.01787 | 2542 ft | 175 kts | 273° |
| 2026-04-22 06:15 | 19.09077 | 73.00501 | 2311 ft | 174 kts | 273° |
| 2026-04-22 06:15 | 19.09058 | 72.99207 | 2089 ft | 173 kts | 272° |
| 2026-04-22 06:15 | 19.09041 | 72.97936 | 1873 ft | 172 kts | 271° |
| 2026-04-22 06:15 | 19.09021 | 72.96695 | 1648 ft | 164 kts | 271° |
| 2026-04-22 06:16 | 19.09001 | 72.95526 | 1464 ft | 156 kts | 274° |
| 2026-04-22 06:16 | 19.08985 | 72.94396 | 1242 ft | 149 kts | 273° |
| 2026-04-22 06:16 | 19.08970 | 72.93338 | 1060 ft | 141 kts | 273° |
| 2026-04-22 06:16 | 19.08955 | 72.92307 | 902 ft | 141 kts | 273° |
| 2026-04-22 06:17 | 19.08940 | 72.91292 | 727 ft | 136 kts | 271° |
| 2026-04-22 06:17 | 19.08925 | 72.90296 | 576 ft | 133 kts | 270° |
| 2026-04-22 06:17 | 19.08909 | 72.89311 | 379 ft | 132 kts | 272° |
| 2026-04-22 06:17 | 19.08899 | 72.88350 | 220 ft | 130 kts | 270° |
| 2026-04-22 06:18 | 19.08873 | 72.87387 | 97 ft | 131 kts | 269° |
| 2026-04-22 06:18 | 19.08844 | 72.86463 | 41 ft | 117 kts | 269° |
| 2026-04-22 06:18 | 19.08827 | 72.85695 | 31 ft | 83 kts | 271° |